Wetterdaten: Sonntag, 16.05.2010
Datum Zeit Temp. A. Feuchte A. Luftdruck Regen Wind Richtung Richtung Sonnenschein UV Solar Windben
16.05.2010 00:00 7,7 C 78 % 1009,8 hPa 0,0 mm 3,2 km/h (1 Bft) W-SW 247 0 min 0 UV-I 0 W/m 9,7 km/h (2 Bft)
16.05.2010 00:10 7,6 C 78 % 1009,9 hPa 0,0 mm 3,2 km/h (1 Bft) W-SW 247 0 min 0 UV-I 0 W/m 9,7 km/h (2 Bft)
16.05.2010 00:20 7,5 C 79 % 1009,9 hPa 0,0 mm 1,6 km/h (1 Bft) W-SW 247 0 min 0 UV-I 0 W/m 6,4 km/h (2 Bft)
16.05.2010 00:30 7,4 C 79 % 1010,0 hPa 0,0 mm 1,6 km/h (1 Bft) W-SW 247 0 min 0 UV-I 0 W/m 11,3 km/h (2 Bft)
16.05.2010 00:40 7,3 C 79 % 1010,1 hPa 0,0 mm 1,6 km/h (1 Bft) W-SW 247 0 min 0 UV-I 0 W/m 6,4 km/h (2 Bft)
16.05.2010 00:50 7,3 C 80 % 1010,2 hPa 0,0 mm 3,2 km/h (1 Bft) W-SW 247 0 min 0 UV-I 0 W/m 11,3 km/h (2 Bft)
16.05.2010 01:00 7,2 C 80 % 1010,2 hPa 0,0 mm 1,6 km/h (1 Bft) W-SW 247 0 min 0 UV-I 0 W/m 4,8 km/h (1 Bft)
16.05.2010 01:10 7,2 C 80 % 1010,3 hPa 0,0 mm 0,0 km/h (0 Bft) W-SW 247 0 min 0 UV-I 0 W/m 3,2 km/h (1 Bft)
16.05.2010 01:20 7,1 C 80 % 1010,3 hPa 0,0 mm 0,0 km/h (0 Bft) W-SW 247 0 min 0 UV-I 0 W/m 4,8 km/h (1 Bft)
16.05.2010 01:30 7,0 C 81 % 1010,3 hPa 0,0 mm 1,6 km/h (1 Bft) W-SW 247 0 min 0 UV-I 0 W/m 6,4 km/h (2 Bft)
16.05.2010 01:40 7,0 C 82 % 1010,3 hPa 0,0 mm 1,6 km/h (1 Bft) W-SW 247 0 min 0 UV-I 0 W/m 6,4 km/h (2 Bft)
16.05.2010 01:50 7,0 C 82 % 1010,2 hPa 0,0 mm 3,2 km/h (1 Bft) W-SW 247 0 min 0 UV-I 0 W/m 9,7 km/h (2 Bft)
16.05.2010 02:00 7,1 C 82 % 1010,3 hPa 0,0 mm 1,6 km/h (1 Bft) W-SW 247 0 min 0 UV-I 0 W/m 8,0 km/h (2 Bft)
16.05.2010 02:10 7,1 C 83 % 1010,2 hPa 0,0 mm 3,2 km/h (1 Bft) W-SW 247 0 min 0 UV-I 0 W/m 9,7 km/h (2 Bft)
16.05.2010 02:20 7,1 C 83 % 1010,2 hPa 0,0 mm 3,2 km/h (1 Bft) W-SW 247 0 min 0 UV-I 0 W/m 14,5 km/h (3 Bft)
16.05.2010 02:30 7,2 C 83 % 1010,1 hPa 0,0 mm 4,8 km/h (1 Bft) W-SW 247 0 min 0 UV-I 0 W/m 19,3 km/h (3 Bft)
16.05.2010 02:40 7,3 C 84 % 1010,0 hPa 0,0 mm 4,8 km/h (1 Bft) W-SW 247 0 min 0 UV-I 0 W/m 11,3 km/h (2 Bft)
16.05.2010 02:50 7,5 C 84 % 1010,1 hPa 0,0 mm 4,8 km/h (1 Bft) W-SW 247 0 min 0 UV-I 0 W/m 14,5 km/h (3 Bft)
16.05.2010 03:00 7,6 C 84 % 1010,0 hPa 0,0 mm 3,2 km/h (1 Bft) W-SW 247 0 min 0 UV-I 0 W/m 14,5 km/h (3 Bft)
16.05.2010 03:10 7,7 C 84 % 1010,0 hPa 0,0 mm 4,8 km/h (1 Bft) W-SW 247 0 min 0 UV-I 0 W/m 11,3 km/h (2 Bft)
16.05.2010 03:20 7,8 C 84 % 1010,0 hPa 0,0 mm 4,8 km/h (1 Bft) W-SW 247 0 min 0 UV-I 0 W/m 16,1 km/h (3 Bft)
16.05.2010 03:30 7,9 C 85 % 1010,0 hPa 0,0 mm 4,8 km/h (1 Bft) W 270 0 min 0 UV-I 0 W/m 16,1 km/h (3 Bft)
16.05.2010 03:40 8,1 C 85 % 1010,0 hPa 0,0 mm 6,4 km/h (2 Bft) W 270 0 min 0 UV-I 0 W/m 19,3 km/h (3 Bft)
16.05.2010 03:50 8,2 C 85 % 1010,0 hPa 0,0 mm 4,8 km/h (1 Bft) W-SW 247 0 min 0 UV-I 0 W/m 17,7 km/h (3 Bft)
16.05.2010 04:00 8,2 C 85 % 1010,0 hPa 0,0 mm 4,8 km/h (1 Bft) W-SW 247 0 min 0 UV-I 0 W/m 14,5 km/h (3 Bft)
16.05.2010 04:10 8,3 C 85 % 1010,1 hPa 0,0 mm 6,4 km/h (2 Bft) W 270 0 min 0 UV-I 0 W/m 14,5 km/h (3 Bft)
16.05.2010 04:20 8,3 C 85 % 1010,2 hPa 0,0 mm 4,8 km/h (1 Bft) W 270 0 min 0 UV-I 0 W/m 17,7 km/h (3 Bft)
16.05.2010 04:30 8,3 C 85 % 1010,2 hPa 0,0 mm 4,8 km/h (1 Bft) W-SW 247 0 min 0 UV-I 0 W/m 14,5 km/h (3 Bft)
16.05.2010 04:40 8,2 C 85 % 1010,3 hPa 0,0 mm 4,8 km/h (1 Bft) W 270 0 min 0 UV-I 0 W/m 12,9 km/h (3 Bft)
16.05.2010 04:50 8,2 C 85 % 1010,1 hPa 0,0 mm 4,8 km/h (1 Bft) W-SW 247 0 min 0 UV-I 0 W/m 14,5 km/h (3 Bft)
16.05.2010 05:00 8,1 C 86 % 1010,2 hPa 0,0 mm 6,4 km/h (2 Bft) W 270 0 min 0 UV-I 0 W/m 16,1 km/h (3 Bft)
16.05.2010 05:10 8,1 C 86 % 1010,3 hPa 0,0 mm 4,8 km/h (1 Bft) W 270 0 min 0 UV-I 0 W/m 16,1 km/h (3 Bft)
16.05.2010 05:20 8,2 C 86 % 1010,3 hPa 0,0 mm 4,8 km/h (1 Bft) W 270 0 min 0 UV-I 0 W/m 14,5 km/h (3 Bft)
16.05.2010 05:30 8,2 C 86 % 1010,3 hPa 0,0 mm 8,0 km/h (2 Bft) W-SW 247 0 min 0 UV-I 0 W/m 17,7 km/h (3 Bft)
16.05.2010 05:40 8,2 C 86 % 1010,4 hPa 0,0 mm 8,0 km/h (2 Bft) W-SW 247 0 min 0 UV-I 0 W/m 22,5 km/h (4 Bft)
16.05.2010 05:50 8,3 C 86 % 1010,6 hPa 0,0 mm 4,8 km/h (1 Bft) W 270 0 min 0 UV-I 5 W/m 17,7 km/h (3 Bft)
16.05.2010 06:00 8,3 C 86 % 1010,6 hPa 0,0 mm 4,8 km/h (1 Bft) W 270 0 min 0 UV-I 9 W/m 16,1 km/h (3 Bft)
16.05.2010 06:10 8,3 C 86 % 1010,7 hPa 0,0 mm 3,2 km/h (1 Bft) W 270 0 min 0 UV-I 11 W/m 16,1 km/h (3 Bft)
16.05.2010 06:20 8,3 C 85 % 1010,8 hPa 0,0 mm 3,2 km/h (1 Bft) W-SW 247 0 min 0 UV-I 18 W/m 9,7 km/h (2 Bft)
16.05.2010 06:30 8,2 C 85 % 1010,9 hPa 0,0 mm 4,8 km/h (1 Bft) W 270 0 min 0 UV-I 37 W/m 16,1 km/h (3 Bft)
16.05.2010 06:40 8,2 C 85 % 1011,0 hPa 0,0 mm 3,2 km/h (1 Bft) W 270 0 min 0 UV-I 39 W/m 17,7 km/h (3 Bft)
16.05.2010 06:50 8,1 C 86 % 1011,0 hPa 0,0 mm 3,2 km/h (1 Bft) W-SW 247 0 min 0 UV-I 58 W/m 11,3 km/h (2 Bft)
16.05.2010 07:00 8,1 C 86 % 1011,0 hPa 0,0 mm 4,8 km/h (1 Bft) W 270 0 min 0 UV-I 39 W/m 17,7 km/h (3 Bft)
16.05.2010 07:10 8,2 C 86 % 1011,2 hPa 0,0 mm 4,8 km/h (1 Bft) W 270 0 min 0 UV-I 44 W/m 16,1 km/h (3 Bft)
16.05.2010 07:20 8,2 C 86 % 1011,4 hPa 0,0 mm 8,0 km/h (2 Bft) W 270 0 min 0 UV-I 42 W/m 24,1 km/h (4 Bft)
16.05.2010 07:30 8,2 C 85 % 1011,5 hPa 0,0 mm 4,8 km/h (1 Bft) W 270 0 min 0 UV-I 69 W/m 14,5 km/h (3 Bft)
16.05.2010 07:40 8,2 C 85 % 1011,5 hPa 0,0 mm 6,4 km/h (2 Bft) W 270 0 min 0 UV-I 130 W/m 22,5 km/h (4 Bft)
16.05.2010 07:50 8,3 C 85 % 1011,5 hPa 0,0 mm 4,8 km/h (1 Bft) W 270 0 min 1 UV-I 142 W/m 11,3 km/h (2 Bft)
16.05.2010 08:00 8,4 C 84 % 1011,6 hPa 0,0 mm 6,4 km/h (2 Bft) W 270 10 min 1 UV-I 209 W/m 19,3 km/h (3 Bft)
16.05.2010 08:10 8,4 C 83 % 1011,8 hPa 0,0 mm 6,4 km/h (2 Bft) W 270 0 min 1 UV-I 156 W/m 19,3 km/h (3 Bft)
16.05.2010 08:20 8,6 C 79 % 1011,7 hPa 0,0 mm 9,7 km/h (2 Bft) W 270 10 min 1 UV-I 439 W/m 24,1 km/h (4 Bft)
16.05.2010 08:30 9,3 C 78 % 1011,8 hPa 0,0 mm 6,4 km/h (2 Bft) W-SW 247 10 min 1 UV-I 478 W/m 24,1 km/h (4 Bft)
16.05.2010 08:40 9,3 C 78 % 1011,8 hPa 0,0 mm 8,0 km/h (2 Bft) W 270 10 min 1 UV-I 515 W/m 20,9 km/h (4 Bft)
16.05.2010 08:50 9,3 C 78 % 1011,7 hPa 0,0 mm 6,4 km/h (2 Bft) W-NW 292 10 min 2 UV-I 566 W/m 22,5 km/h (4 Bft)
16.05.2010 09:00 9,6 C 77 % 1011,8 hPa 0,0 mm 6,4 km/h (2 Bft) W 270 10 min 2 UV-I 577 W/m 22,5 km/h (4 Bft)
16.05.2010 09:10 9,8 C 75 % 1011,9 hPa 0,0 mm 8,0 km/h (2 Bft) W 270 10 min 2 UV-I 555 W/m 29,0 km/h (5 Bft)
16.05.2010 09:20 9,9 C 74 % 1011,9 hPa 0,0 mm 8,0 km/h (2 Bft) W 270 10 min 2 UV-I 645 W/m 20,9 km/h (4 Bft)
16.05.2010 09:30 10,1 C 73 % 1012,2 hPa 0,0 mm 8,0 km/h (2 Bft) W 270 10 min 2 UV-I 656 W/m 20,9 km/h (4 Bft)
16.05.2010 09:40 10,2 C 73 % 1012,3 hPa 0,0 mm 8,0 km/h (2 Bft) W 270 10 min 3 UV-I 664 W/m 22,5 km/h (4 Bft)
16.05.2010 09:50 10,5 C 72 % 1012,3 hPa 0,0 mm 4,8 km/h (1 Bft) W 270 10 min 3 UV-I 504 W/m 16,1 km/h (3 Bft)
16.05.2010 10:00 10,8 C 71 % 1012,3 hPa 0,0 mm 6,4 km/h (2 Bft) W 270 0 min 3 UV-I 257 W/m 20,9 km/h (4 Bft)
16.05.2010 10:10 11,1 C 68 % 1012,2 hPa 0,0 mm 8,0 km/h (2 Bft) W 270 10 min 3 UV-I 700 W/m 19,3 km/h (3 Bft)
16.05.2010 10:20 11,4 C 67 % 1012,4 hPa 0,0 mm 9,7 km/h (2 Bft) W 270 10 min 4 UV-I 745 W/m 24,1 km/h (4 Bft)
16.05.2010 10:30 11,6 C 66 % 1012,3 hPa 0,0 mm 8,0 km/h (2 Bft) W 270 10 min 4 UV-I 886 W/m 19,3 km/h (3 Bft)
16.05.2010 10:40 12,0 C 64 % 1012,2 hPa 0,0 mm 8,0 km/h (2 Bft) W 270 0 min 4 UV-I 267 W/m 19,3 km/h (3 Bft)
16.05.2010 10:50 12,1 C 64 % 1012,3 hPa 0,0 mm 8,0 km/h (2 Bft) W 270 0 min 3 UV-I 301 W/m 25,7 km/h (4 Bft)
16.05.2010 11:00 11,8 C 64 % 1012,5 hPa 0,0 mm 8,7 km/h (2 Bft) N-NW 337 0 min 2 UV-I 250 W/m 22,5 km/h (4 Bft)
16.05.2010 11:10 12,0 C 62 % 1012,5 hPa 0,0 mm 8,0 km/h (2 Bft) W 270 0 min 4 UV-I 357 W/m 24,1 km/h (4 Bft)
16.05.2010 11:20 12,6 C 60 % 1012,5 hPa 0,0 mm 8,0 km/h (2 Bft) W 270 10 min 5 UV-I 1011 W/m 22,5 km/h (4 Bft)
16.05.2010 11:30 13,1 C 60 % 1012,5 hPa 0,0 mm 8,0 km/h (2 Bft) W 270 0 min 5 UV-I 285 W/m 20,9 km/h (4 Bft)
16.05.2010 11:40 12,7 C 58 % 1012,6 hPa 0,0 mm 8,0 km/h (2 Bft) W 270 10 min 5 UV-I 979 W/m 24,1 km/h (4 Bft)
16.05.2010 11:50 12,8 C 58 % 1012,7 hPa 0,0 mm 6,4 km/h (2 Bft) W 270 0 min 5 UV-I 204 W/m 20,9 km/h (4 Bft)
16.05.2010 12:00 12,7 C 57 % 1012,7 hPa 0,0 mm 8,0 km/h (2 Bft) W 270 10 min 6 UV-I 1076 W/m 22,5 km/h (4 Bft)
16.05.2010 12:10 12,9 C 57 % 1012,7 hPa 0,0 mm 9,7 km/h (2 Bft) W 270 0 min 2 UV-I 267 W/m 29,0 km/h (5 Bft)
16.05.2010 12:20 12,7 C 57 % 1012,7 hPa 0,0 mm 9,7 km/h (2 Bft) W 270 0 min 3 UV-I 338 W/m 24,1 km/h (4 Bft)
16.05.2010 12:30 12,9 C 56 % 1012,8 hPa 0,0 mm 9,7 km/h (2 Bft) W 270 0 min 3 UV-I 432 W/m 29,0 km/h (5 Bft)
16.05.2010 12:40 12,8 C 54 % 1012,7 hPa 0,0 mm 9,7 km/h (2 Bft) W-NW 292 0 min 2 UV-I 230 W/m 22,5 km/h (4 Bft)
16.05.2010 12:50 12,7 C 55 % 1012,8 hPa 0,0 mm 9,7 km/h (2 Bft) W-NW 292 0 min 3 UV-I 388 W/m 32,2 km/h (5 Bft)
16.05.2010 13:00 13,1 C 55 % 1012,8 hPa 0,0 mm 4,8 km/h (1 Bft) W-NW 292 0 min 6 UV-I 390 W/m 20,9 km/h (4 Bft)
16.05.2010 13:10 14,1 C 51 % 1012,9 hPa 0,0 mm 8,0 km/h (2 Bft) W 270 10 min 6 UV-I 1176 W/m 20,9 km/h (4 Bft)
16.05.2010 13:20 13,9 C 53 % 1012,9 hPa 0,0 mm 9,7 km/h (2 Bft) W-NW 292 0 min 6 UV-I 232 W/m 22,5 km/h (4 Bft)
16.05.2010 13:30 14,1 C 52 % 1012,8 hPa 0,0 mm 9,7 km/h (2 Bft) W 270 10 min 6 UV-I 1060 W/m 22,5 km/h (4 Bft)
16.05.2010 13:40 14,8 C 51 % 1012,9 hPa 0,0 mm 9,7 km/h (2 Bft) W 270 10 min 7 UV-I 1220 W/m 19,3 km/h (3 Bft)
16.05.2010 13:50 15,0 C 51 % 1012,9 hPa 0,0 mm 8,0 km/h (2 Bft) W 270 10 min 5 UV-I 469 W/m 20,9 km/h (4 Bft)
16.05.2010 14:00 14,6 C 53 % 1013,0 hPa 0,0 mm 8,0 km/h (2 Bft) W 270 0 min 3 UV-I 304 W/m 20,9 km/h (4 Bft)
16.05.2010 14:10 13,9 C 54 % 1013,2 hPa 0,0 mm 9,7 km/h (2 Bft) W 270 0 min 2 UV-I 251 W/m 24,1 km/h (4 Bft)
16.05.2010 14:20 13,7 C 56 % 1013,2 hPa 0,0 mm 8,0 km/h (2 Bft) W 270 0 min 2 UV-I 185 W/m 20,9 km/h (4 Bft)
16.05.2010 14:30 13,5 C 58 % 1013,2 hPa 0,0 mm 4,8 km/h (1 Bft) W 270 0 min 2 UV-I 257 W/m 14,5 km/h (3 Bft)
16.05.2010 14:40 13,7 C 56 % 1013,2 hPa 0,0 mm 8,0 km/h (2 Bft) W 270 10 min 5 UV-I 954 W/m 22,5 km/h (4 Bft)
16.05.2010 14:50 14,6 C 55 % 1013,2 hPa 0,0 mm 9,7 km/h (2 Bft) W-SW 247 10 min 5 UV-I 967 W/m 24,1 km/h (4 Bft)
16.05.2010 15:00 14,4 C 57 % 1013,1 hPa 0,0 mm 6,4 km/h (2 Bft) W-NW 292 0 min 3 UV-I 364 W/m 24,1 km/h (4 Bft)
16.05.2010 15:10 14,5 C 55 % 1013,1 hPa 0,0 mm 8,0 km/h (2 Bft) W 270 10 min 3 UV-I 496 W/m 19,3 km/h (3 Bft)
16.05.2010 15:20 15,1 C 51 % 1013,1 hPa 0,0 mm 9,7 km/h (2 Bft) W 270 10 min 5 UV-I 1056 W/m 20,9 km/h (4 Bft)
16.05.2010 15:30 15,3 C 54 % 1013,1 hPa 0,0 mm 9,7 km/h (2 Bft) W 270 10 min 4 UV-I 963 W/m 20,9 km/h (4 Bft)
16.05.2010 15:40 15,2 C 52 % 1013,2 hPa 0,0 mm 11,3 km/h (2 Bft) W 270 10 min 4 UV-I 570 W/m 25,7 km/h (4 Bft)
16.05.2010 15:50 15,9 C 51 % 1013,1 hPa 0,0 mm 9,7 km/h (2 Bft) W-SW 247 10 min 4 UV-I 933 W/m 27,4 km/h (4 Bft)
16.05.2010 16:00 15,9 C 51 % 1013,2 hPa 0,0 mm 11,3 km/h (2 Bft) W 270 10 min 4 UV-I 962 W/m 29,0 km/h (5 Bft)
16.05.2010 16:10 15,8 C 53 % 1013,1 hPa 0,0 mm 7,2 km/h (2 Bft) N 5 10 min 3 UV-I 885 W/m 19,3 km/h (3 Bft)
16.05.2010 16:20 16,3 C 51 % 1013,2 hPa 0,0 mm 9,7 km/h (2 Bft) W 270 10 min 4 UV-I 867 W/m 22,5 km/h (4 Bft)
16.05.2010 16:30 16,1 C 53 % 1013,2 hPa 0,0 mm 8,0 km/h (2 Bft) W 270 10 min 3 UV-I 824 W/m 24,1 km/h (4 Bft)
16.05.2010 16:40 15,7 C 51 % 1013,3 hPa 0,0 mm 8,0 km/h (2 Bft) W 270 10 min 3 UV-I 775 W/m 20,9 km/h (4 Bft)
16.05.2010 16:50 16,4 C 51 % 1013,2 hPa 0,0 mm 8,0 km/h (2 Bft) W 270 10 min 3 UV-I 686 W/m 24,1 km/h (4 Bft)
16.05.2010 17:00 16,8 C 49 % 1012,9 hPa 0,0 mm 8,0 km/h (2 Bft) W-SW 247 10 min 3 UV-I 686 W/m 19,3 km/h (3 Bft)
16.05.2010 17:10 16,4 C 50 % 1013,3 hPa 0,0 mm 8,0 km/h (2 Bft) W-NW 292 10 min 2 UV-I 374 W/m 20,9 km/h (4 Bft)
16.05.2010 17:20 16,5 C 48 % 1013,3 hPa 0,0 mm 11,3 km/h (2 Bft) W 270 10 min 2 UV-I 744 W/m 25,7 km/h (4 Bft)
16.05.2010 17:30 16,1 C 51 % 1013,5 hPa 0,0 mm 8,0 km/h (2 Bft) W 270 0 min 1 UV-I 211 W/m 20,9 km/h (4 Bft)
16.05.2010 17:40 15,8 C 49 % 1013,5 hPa 0,0 mm 8,0 km/h (2 Bft) W 270 10 min 2 UV-I 580 W/m 22,5 km/h (4 Bft)
16.05.2010 17:50 16,2 C 50 % 1013,6 hPa 0,0 mm 8,0 km/h (2 Bft) W 270 10 min 2 UV-I 520 W/m 20,9 km/h (4 Bft)
16.05.2010 18:00 16,0 C 49 % 1013,6 hPa 0,0 mm 8,0 km/h (2 Bft) W 270 10 min 1 UV-I 520 W/m 20,9 km/h (4 Bft)
16.05.2010 18:10 16,2 C 50 % 1013,7 hPa 0,0 mm 8,0 km/h (2 Bft) W 270 10 min 1 UV-I 497 W/m 20,9 km/h (4 Bft)
16.05.2010 18:20 16,5 C 46 % 1013,7 hPa 0,0 mm 9,7 km/h (2 Bft) W 270 10 min 1 UV-I 496 W/m 30,6 km/h (5 Bft)
16.05.2010 18:30 16,2 C 47 % 1013,9 hPa 0,0 mm 9,7 km/h (2 Bft) W 270 10 min 1 UV-I 455 W/m 20,9 km/h (4 Bft)
16.05.2010 18:40 15,7 C 50 % 1014,0 hPa 0,0 mm 6,4 km/h (2 Bft) W-NW 292 0 min 1 UV-I 111 W/m 22,5 km/h (4 Bft)
16.05.2010 18:50 15,5 C 48 % 1014,0 hPa 0,0 mm 6,4 km/h (2 Bft) W 270 10 min 1 UV-I 404 W/m 19,3 km/h (3 Bft)
16.05.2010 19:00 15,7 C 49 % 1014,0 hPa 0,0 mm 6,4 km/h (2 Bft) W-NW 292 10 min 1 UV-I 334 W/m 19,3 km/h (3 Bft)
16.05.2010 19:10 15,9 C 48 % 1014,2 hPa 0,0 mm 6,4 km/h (2 Bft) W 270 10 min 1 UV-I 283 W/m 20,9 km/h (4 Bft)
16.05.2010 19:20 15,8 C 48 % 1014,2 hPa 0,0 mm 6,4 km/h (2 Bft) W-NW 292 10 min 1 UV-I 264 W/m 20,9 km/h (4 Bft)
16.05.2010 19:30 15,6 C 48 % 1014,3 hPa 0,0 mm 6,4 km/h (2 Bft) W-NW 292 10 min 1 UV-I 218 W/m 19,3 km/h (3 Bft)
16.05.2010 19:40 15,4 C 47 % 1014,4 hPa 0,0 mm 6,4 km/h (2 Bft) W-NW 292 10 min 1 UV-I 206 W/m 16,1 km/h (3 Bft)
16.05.2010 19:50 15,0 C 48 % 1014,5 hPa 0,0 mm 4,8 km/h (1 Bft) NW 315 10 min 0 UV-I 171 W/m 14,5 km/h (3 Bft)
16.05.2010 20:00 15,0 C 48 % 1014,6 hPa 0,0 mm 4,8 km/h (1 Bft) W-NW 292 10 min 0 UV-I 160 W/m 19,3 km/h (3 Bft)
16.05.2010 20:10 14,7 C 49 % 1014,8 hPa 0,0 mm 6,4 km/h (2 Bft) W 270 0 min 0 UV-I 44 W/m 17,7 km/h (3 Bft)
16.05.2010 20:20 14,4 C 48 % 1014,8 hPa 0,0 mm 6,4 km/h (2 Bft) W-NW 292 0 min 0 UV-I 37 W/m 17,7 km/h (3 Bft)
16.05.2010 20:30 14,2 C 50 % 1014,9 hPa 0,0 mm 3,2 km/h (1 Bft) W-NW 292 0 min 0 UV-I 30 W/m 14,5 km/h (3 Bft)
16.05.2010 20:40 13,9 C 51 % 1015,1 hPa 0,0 mm 1,6 km/h (1 Bft) W-NW 292 0 min 0 UV-I 25 W/m 8,0 km/h (2 Bft)
16.05.2010 20:50 13,6 C 52 % 1015,2 hPa 0,0 mm 1,6 km/h (1 Bft) W-NW 292 0 min 0 UV-I 19 W/m 6,4 km/h (2 Bft)
16.05.2010 21:00 13,3 C 54 % 1015,3 hPa 0,0 mm 0,0 km/h (0 Bft) W 270 10 min 0 UV-I 14 W/m 9,7 km/h (2 Bft)
16.05.2010 21:10 12,8 C 54 % 1015,3 hPa 0,0 mm 0,0 km/h (0 Bft) W 270 0 min 0 UV-I 7 W/m 8,0 km/h (2 Bft)
16.05.2010 21:20 12,7 C 55 % 1015,4 hPa 0,0 mm 0,0 km/h (0 Bft) W 270 0 min 0 UV-I 0 W/m 4,8 km/h (1 Bft)
16.05.2010 21:30 12,4 C 56 % 1015,5 hPa 0,0 mm 0,0 km/h (0 Bft) W 270 0 min 0 UV-I 0 W/m 3,2 km/h (1 Bft)
16.05.2010 21:40 12,1 C 58 % 1015,6 hPa 0,0 mm 0,0 km/h (0 Bft) W 270 0 min 0 UV-I 0 W/m 3,2 km/h (1 Bft)
16.05.2010 21:50 11,8 C 59 % 1015,7 hPa 0,0 mm 0,0 km/h (0 Bft) W 270 0 min 0 UV-I 0 W/m 3,2 km/h (1 Bft)
16.05.2010 22:00 11,6 C 60 % 1015,8 hPa 0,0 mm 0,0 km/h (0 Bft) W 270 0 min 0 UV-I 0 W/m 3,2 km/h (1 Bft)
16.05.2010 22:10 11,0 C 63 % 1016,0 hPa 0,0 mm 0,0 km/h (0 Bft) N 0 0 min 0 UV-I 0 W/m 0,0 km/h (0 Bft)
16.05.2010 22:20 10,4 C 64 % 1016,0 hPa 0,0 mm 0,0 km/h (0 Bft) W 270 0 min 0 UV-I 0 W/m 1,6 km/h (1 Bft)
16.05.2010 22:30 10,1 C 66 % 1016,1 hPa 0,0 mm 0,0 km/h (0 Bft) W 270 0 min 0 UV-I 0 W/m 1,6 km/h (1 Bft)
16.05.2010 22:40 9,8 C 67 % 1016,1 hPa 0,0 mm 0,0 km/h (0 Bft) W 270 0 min 0 UV-I 0 W/m 1,6 km/h (1 Bft)
16.05.2010 22:50 9,6 C 68 % 1016,2 hPa 0,0 mm 0,0 km/h (0 Bft) N 0 0 min 0 UV-I 0 W/m 0,0 km/h (0 Bft)
16.05.2010 23:00 9,1 C 70 % 1016,4 hPa 0,0 mm 0,0 km/h (0 Bft) N 0 0 min 0 UV-I 0 W/m 0,0 km/h (0 Bft)
16.05.2010 23:10 8,7 C 72 % 1016,3 hPa 0,0 mm 0,0 km/h (0 Bft) N 0 0 min 0 UV-I 0 W/m 0,0 km/h (0 Bft)
16.05.2010 23:20 8,5 C 73 % 1016,4 hPa 0,0 mm 0,0 km/h (0 Bft) N 0 0 min 0 UV-I 0 W/m 0,0 km/h (0 Bft)
16.05.2010 23:30 8,3 C 73 % 1016,3 hPa 0,0 mm 0,0 km/h (0 Bft) N 0 0 min 0 UV-I 0 W/m 0,0 km/h (0 Bft)
16.05.2010 23:40 8,2 C 74 % 1016,4 hPa 0,0 mm 0,0 km/h (0 Bft) N 0 0 min 0 UV-I 0 W/m 0,0 km/h (0 Bft)
16.05.2010 23:50 7,9 C 75 % 1016,5 hPa 0,0 mm 0,0 km/h (0 Bft) N 0 0 min 0 UV-I 0 W/m 0,0 km/h (0 Bft)
_ Min-Zeit 01:40 18:20 00:00 - 01:10 - - - - - 22:10
Minimum _ 6,9 C 46 % 1009,8 hPa - 0,0 km/h (0 Bft) - - - - - 0,0 km/h (0 Bft)
_ Max-Zeit 17:00 05:00 23:50 00:00 15:40 - - 08:00 13:40 13:40 12:50
Maximum _ 16,9 C 86 % 1016,5 hPa 0,0 mm 11,3 km/h
W (2 Bft)
- - 10 min 7 UV-I 1220 W/m 32,2 km/h
W-SW (5 Bft)
Durchschnitt _ 11,3 C 67 % 1012,5 hPa #0,0 mm 5,6 km/h (1 Bft) W - #8:40 h 3 UV-I 428 W/m 16,4 km/h (3 Bft)